KASN

Talladega Municipal Airport

Talladega, Alabama, USA
METAR KASN 260315Z AUTO 33004KT 7SM -RA SCT006 BKN011 OVC060 13/13 A3020 RMK AO2 P0001 T01330133
Observed Flight Rules
Feb-26 @ 03:15 UTC (13 minutes ago) Marginal Visual Flight Rules
Wind Visibility Clouds Conditions
330° at 4 knots 7 miles
  • Scattered at 600' AGL
  • Broken at 1,100' AGL
  • Overcast at 6,000' AGL
  • Light Rain
Temperatures Readings Precipitation
Current 13°C / 55°F
Dewpoint 13°C / 55°F
Humidity 100%
Altimeter 30.2" Hg
Pressure 1023 hPa
Elevation 162
Current Rain 0.01
METAR KASN 260315Z AUTO 33004KT 7SM -RA SCT006 BKN011 OVC060 13/13 A3020 RMK AO2 P0001 T01330133
Observed Flight Rules
Feb-26 @ 03:15 UTC
(13 minutes ago)
MVFR
Wind Visibility
330° at 4 knots 7 miles
Clouds
  • Scattered at 600' AGL
  • Broken at 1,100' AGL
  • Overcast at 6,000' AGL
Conditions
  • Light Rain
Temperature Dewpoint
13°C / 55°F 13°C / 55°F
Humidity Altimeter Pressure
100% 30.2" Hg 1023 hPa
Current Rain
0.01